sensor_id;sensor_type;location;lat;lon;timestamp;pressure;altitude;pressure_sealevel;temperature;humidity
39699;BME280;25372;50.582;12.250;2023-07-29T00:02:43;99160.63;;;17.90;85.57
39699;BME280;25372;50.582;12.250;2023-07-29T00:13:04;99157.75;;;17.67;86.41
39699;BME280;25372;50.582;12.250;2023-07-29T00:23:27;99168.38;;;17.32;89.15
39699;BME280;25372;50.582;12.250;2023-07-29T00:33:48;99160.09;;;17.00;90.06
39699;BME280;25372;50.582;12.250;2023-07-29T00:44:10;99161.44;;;16.86;90.98
39699;BME280;25372;50.582;12.250;2023-07-29T00:54:31;99155.94;;;16.80;91.39
39699;BME280;25372;50.582;12.250;2023-07-29T01:04:54;99155.34;;;16.68;91.25
39699;BME280;25372;50.582;12.250;2023-07-29T01:15:17;99152.28;;;16.81;91.93
39699;BME280;25372;50.582;12.250;2023-07-29T01:25:42;99141.69;;;16.81;91.33
39699;BME280;25372;50.582;12.250;2023-07-29T01:36:07;99129.94;;;16.83;91.08
39699;BME280;25372;50.582;12.250;2023-07-29T01:46:34;99132.59;;;16.83;90.75
39699;BME280;25372;50.582;12.250;2023-07-29T01:56:54;99124.75;;;17.00;90.21
39699;BME280;25372;50.582;12.250;2023-07-29T02:07:17;99122.56;;;16.95;89.00
39699;BME280;25372;50.582;12.250;2023-07-29T02:17:41;99133.28;;;16.85;89.17
39699;BME280;25372;50.582;12.250;2023-07-29T02:28:04;99126.13;;;16.86;89.53
39699;BME280;25372;50.582;12.250;2023-07-29T02:38:25;99129.47;;;16.61;91.28
39699;BME280;25372;50.582;12.250;2023-07-29T02:48:47;99151.38;;;16.27;93.21
39699;BME280;25372;50.582;12.250;2023-07-29T02:59:08;99160.81;;;16.48;91.46
39699;BME280;25372;50.582;12.250;2023-07-29T03:09:30;99153.63;;;16.85;89.52
39699;BME280;25372;50.582;12.250;2023-07-29T03:19:53;99162.72;;;17.00;88.59
39699;BME280;25372;50.582;12.250;2023-07-29T03:30:19;99150.25;;;17.54;86.41
39699;BME280;25372;50.582;12.250;2023-07-29T03:40:41;99151.53;;;17.93;84.47
39699;BME280;25372;50.582;12.250;2023-07-29T03:51:03;99140.28;;;17.99;84.59
39699;BME280;25372;50.582;12.250;2023-07-29T04:01:24;99138.22;;;17.84;84.46
39699;BME280;25372;50.582;12.250;2023-07-29T04:11:46;99145.47;;;18.17;82.41
39699;BME280;25372;50.582;12.250;2023-07-29T04:22:08;99149.28;;;18.39;82.30
39699;BME280;25372;50.582;12.250;2023-07-29T04:32:30;99152.47;;;18.51;81.64
39699;BME280;25372;50.582;12.250;2023-07-29T04:42:51;99151.97;;;18.48;82.01
39699;BME280;25372;50.582;12.250;2023-07-29T04:53:14;99151.47;;;18.61;80.92
39699;BME280;25372;50.582;12.250;2023-07-29T05:03:34;99138.81;;;18.96;80.64
39699;BME280;25372;50.582;12.250;2023-07-29T05:14:00;99137.31;;;19.10;80.26
39699;BME280;25372;50.582;12.250;2023-07-29T05:24:23;99132.44;;;19.62;79.03
39699;BME280;25372;50.582;12.250;2023-07-29T05:34:45;99114.94;;;19.67;77.69
39699;BME280;25372;50.582;12.250;2023-07-29T05:45:07;99119.06;;;19.78;77.95
39699;BME280;25372;50.582;12.250;2023-07-29T05:55:30;99103.34;;;19.92;75.58
39699;BME280;25372;50.582;12.250;2023-07-29T06:05:51;99112.88;;;21.09;72.90
39699;BME280;25372;50.582;12.250;2023-07-29T06:16:13;99090.47;;;21.92;66.98
39699;BME280;25372;50.582;12.250;2023-07-29T06:26:37;99096.22;;;21.22;68.79
39699;BME280;25372;50.582;12.250;2023-07-29T06:36:59;99108.28;;;21.85;69.87
39699;BME280;25372;50.582;12.250;2023-07-29T06:47:20;99113.13;;;22.62;68.58
39699;BME280;25372;50.582;12.250;2023-07-29T06:57:43;99110.88;;;22.44;64.80
39699;BME280;25372;50.582;12.250;2023-07-29T07:08:04;99103.47;;;22.96;62.26
39699;BME280;25372;50.582;12.250;2023-07-29T07:18:26;99091.91;;;23.86;60.62
39699;BME280;25372;50.582;12.250;2023-07-29T07:28:47;99082.38;;;23.15;60.06
39699;BME280;25372;50.582;12.250;2023-07-29T07:39:09;99059.44;;;23.48;60.59
39699;BME280;25372;50.582;12.250;2023-07-29T07:49:30;99049.25;;;23.23;59.95
39699;BME280;25372;50.582;12.250;2023-07-29T07:59:53;99044.97;;;24.18;55.75
39699;BME280;25372;50.582;12.250;2023-07-29T08:10:14;99033.94;;;23.58;58.45
39699;BME280;25372;50.582;12.250;2023-07-29T08:20:36;99029.22;;;24.75;55.96
39699;BME280;25372;50.582;12.250;2023-07-29T08:30:57;99025.16;;;24.25;56.65
39699;BME280;25372;50.582;12.250;2023-07-29T08:41:24;99015.69;;;25.16;52.37
39699;BME280;25372;50.582;12.250;2023-07-29T08:51:47;99031.63;;;25.10;53.71
39699;BME280;25372;50.582;12.250;2023-07-29T09:02:09;99036.06;;;25.37;55.17
39699;BME280;25372;50.582;12.250;2023-07-29T09:12:30;99033.53;;;25.81;52.55
39699;BME280;25372;50.582;12.250;2023-07-29T09:22:53;99034.59;;;25.34;55.65
39699;BME280;25372;50.582;12.250;2023-07-29T09:33:14;99023.50;;;25.95;53.17
39699;BME280;25372;50.582;12.250;2023-07-29T09:43:37;99015.44;;;25.95;54.70
39699;BME280;25372;50.582;12.250;2023-07-29T09:53:57;99020.56;;;24.73;54.95
39699;BME280;25372;50.582;12.250;2023-07-29T10:04:24;99051.25;;;23.07;61.00
39699;BME280;25372;50.582;12.250;2023-07-29T10:14:47;99030.28;;;21.38;72.84
39699;BME280;25372;50.582;12.250;2023-07-29T10:25:15;99010.59;;;22.90;70.71
39699;BME280;25372;50.582;12.250;2023-07-29T10:35:37;98999.78;;;24.35;64.85
39699;BME280;25372;50.582;12.250;2023-07-29T10:46:15;99002.69;;;24.06;65.98
39699;BME280;25372;50.582;12.250;2023-07-29T10:56:40;98993.16;;;23.77;68.05
39699;BME280;25372;50.582;12.250;2023-07-29T11:07:18;98994.78;;;24.79;65.45
39699;BME280;25372;50.582;12.250;2023-07-29T11:17:43;98984.00;;;24.72;64.82
39699;BME280;25372;50.582;12.250;2023-07-29T11:28:06;99004.84;;;21.05;85.15
39699;BME280;25372;50.582;12.250;2023-07-29T11:38:27;98991.50;;;21.20;87.48
39699;BME280;25372;50.582;12.250;2023-07-29T11:48:49;98987.31;;;21.55;82.98
39699;BME280;25372;50.582;12.250;2023-07-29T11:59:11;98989.09;;;22.13;82.23
39699;BME280;25372;50.582;12.250;2023-07-29T12:09:33;98982.59;;;22.22;78.25
39699;BME280;25372;50.582;12.250;2023-07-29T12:19:54;98985.31;;;22.57;74.13
39699;BME280;25372;50.582;12.250;2023-07-29T12:30:20;98948.72;;;23.13;69.43
39699;BME280;25372;50.582;12.250;2023-07-29T12:40:41;98947.81;;;23.82;66.82
39699;BME280;25372;50.582;12.250;2023-07-29T12:51:03;98934.81;;;23.99;67.00
39699;BME280;25372;50.582;12.250;2023-07-29T13:01:24;98922.22;;;24.26;64.02
39699;BME280;25372;50.582;12.250;2023-07-29T13:11:47;98905.22;;;24.60;61.71
39699;BME280;25372;50.582;12.250;2023-07-29T13:22:08;98912.78;;;24.04;61.80
39699;BME280;25372;50.582;12.250;2023-07-29T13:32:30;98920.66;;;25.17;60.04
39699;BME280;25372;50.582;12.250;2023-07-29T13:42:51;98914.41;;;24.91;58.78
39699;BME280;25372;50.582;12.250;2023-07-29T13:53:15;98921.16;;;25.71;54.52
39699;BME280;25372;50.582;12.250;2023-07-29T14:03:36;98920.56;;;25.69;52.44
39699;BME280;25372;50.582;12.250;2023-07-29T14:13:58;98908.50;;;27.09;50.09
39699;BME280;25372;50.582;12.250;2023-07-29T14:24:19;98888.41;;;27.66;47.54
39699;BME280;25372;50.582;12.250;2023-07-29T14:34:43;98880.78;;;28.35;44.32
39699;BME280;25372;50.582;12.250;2023-07-29T14:45:05;98861.78;;;28.99;42.89
39699;BME280;25372;50.582;12.250;2023-07-29T14:55:28;98863.41;;;29.64;40.03
39699;BME280;25372;50.582;12.250;2023-07-29T15:05:49;98866.63;;;29.14;41.03
39699;BME280;25372;50.582;12.250;2023-07-29T15:16:11;98864.44;;;29.28;39.78
39699;BME280;25372;50.582;12.250;2023-07-29T15:26:32;98868.75;;;28.95;41.50
39699;BME280;25372;50.582;12.250;2023-07-29T15:36:54;98857.22;;;27.04;44.03
39699;BME280;25372;50.582;12.250;2023-07-29T15:47:15;98866.56;;;27.01;46.10
39699;BME280;25372;50.582;12.250;2023-07-29T15:57:39;98888.34;;;26.06;46.19
39699;BME280;25372;50.582;12.250;2023-07-29T16:08:00;98901.88;;;24.64;50.46
39699;BME280;25372;50.582;12.250;2023-07-29T16:18:23;98915.59;;;24.36;52.39
39699;BME280;25372;50.582;12.250;2023-07-29T16:28:43;98930.06;;;23.94;53.53
39699;BME280;25372;50.582;12.250;2023-07-29T16:39:07;99043.38;;;22.63;54.73
39699;BME280;25372;50.582;12.250;2023-07-29T16:49:28;99090.13;;;18.87;68.76
39699;BME280;25372;50.582;12.250;2023-07-29T16:59:50;99110.31;;;17.72;79.14
39699;BME280;25372;50.582;12.250;2023-07-29T17:10:11;99106.28;;;16.63;87.67
39699;BME280;25372;50.582;12.250;2023-07-29T17:20:33;99082.25;;;16.39;93.36
39699;BME280;25372;50.582;12.250;2023-07-29T17:30:54;99091.63;;;16.51;96.24
39699;BME280;25372;50.582;12.250;2023-07-29T17:41:16;99105.25;;;16.83;97.23
39699;BME280;25372;50.582;12.250;2023-07-29T17:51:37;99087.22;;;17.13;95.58
39699;BME280;25372;50.582;12.250;2023-07-29T18:01:59;99097.50;;;17.16;94.05
39699;BME280;25372;50.582;12.250;2023-07-29T18:12:20;99097.63;;;17.06;93.98
39699;BME280;25372;50.582;12.250;2023-07-29T18:22:42;99111.38;;;16.83;93.72
39699;BME280;25372;50.582;12.250;2023-07-29T18:33:03;99122.75;;;16.75;94.47
39699;BME280;25372;50.582;12.250;2023-07-29T18:43:26;99108.50;;;16.50;95.83
39699;BME280;25372;50.582;12.250;2023-07-29T18:53:48;99101.78;;;16.38;96.26
39699;BME280;25372;50.582;12.250;2023-07-29T19:04:10;99078.41;;;16.15;96.42
39699;BME280;25372;50.582;12.250;2023-07-29T19:14:30;99087.50;;;16.30;95.86
39699;BME280;25372;50.582;12.250;2023-07-29T19:24:53;99086.19;;;16.16;94.17
39699;BME280;25372;50.582;12.250;2023-07-29T19:35:13;99099.59;;;15.97;92.26
39699;BME280;25372;50.582;12.250;2023-07-29T19:45:35;99102.16;;;15.88;91.35
39699;BME280;25372;50.582;12.250;2023-07-29T19:55:56;99112.00;;;15.96;89.63
39699;BME280;25372;50.582;12.250;2023-07-29T20:06:19;99119.56;;;15.91;88.96
39699;BME280;25372;50.582;12.250;2023-07-29T20:16:39;99127.34;;;15.92;89.42
39699;BME280;25372;50.582;12.250;2023-07-29T20:27:02;99130.19;;;15.81;87.52
39699;BME280;25372;50.582;12.250;2023-07-29T20:37:23;99133.06;;;15.88;87.45
39699;BME280;25372;50.582;12.250;2023-07-29T20:47:45;99147.19;;;15.78;86.88
39699;BME280;25372;50.582;12.250;2023-07-29T20:58:06;99166.25;;;15.82;87.57
39699;BME280;25372;50.582;12.250;2023-07-29T21:08:28;99157.59;;;15.90;85.72
39699;BME280;25372;50.582;12.250;2023-07-29T21:18:49;99169.03;;;15.90;86.42
39699;BME280;25372;50.582;12.250;2023-07-29T21:29:11;99168.75;;;15.84;87.35
39699;BME280;25372;50.582;12.250;2023-07-29T21:39:32;99159.97;;;15.93;86.81
39699;BME280;25372;50.582;12.250;2023-07-29T21:49:54;99162.75;;;15.91;86.98
39699;BME280;25372;50.582;12.250;2023-07-29T22:00:15;99162.84;;;16.00;85.43
39699;BME280;25372;50.582;12.250;2023-07-29T22:10:40;99160.25;;;15.90;84.59
39699;BME280;25372;50.582;12.250;2023-07-29T22:21:02;99169.72;;;15.92;86.43
39699;BME280;25372;50.582;12.250;2023-07-29T22:31:24;99171.59;;;16.00;85.74
39699;BME280;25372;50.582;12.250;2023-07-29T22:41:45;99169.50;;;16.04;86.13
39699;BME280;25372;50.582;12.250;2023-07-29T22:52:07;99177.13;;;16.07;85.54
39699;BME280;25372;50.582;12.250;2023-07-29T23:02:28;99184.06;;;15.90;84.45
39699;BME280;25372;50.582;12.250;2023-07-29T23:12:51;99193.91;;;15.98;86.44
39699;BME280;25372;50.582;12.250;2023-07-29T23:23:12;99209.22;;;16.04;85.21
39699;BME280;25372;50.582;12.250;2023-07-29T23:33:33;99199.13;;;15.79;84.97
39699;BME280;25372;50.582;12.250;2023-07-29T23:43:54;99198.53;;;15.96;86.75
39699;BME280;25372;50.582;12.250;2023-07-29T23:54:16;99186.59;;;15.82;85.15
